< < Back
Terminal Aerodrome Forecast


Current Version              Previous Versions:   1  2  3  4  5  6  7  8  9  

Terminal Aerodrome Forecast

063
FTUS44 KOHX 230500
TAFBNA
TAF
KBNA 230520Z 2306/2406 02004KT P6SM SKC
     FM231500 05008KT P6SM SKC=

Latest METAR

557
SAUS70 KWBC 231758
MTRBNA
METAR KBNA 231753Z 08005KT 10SM FEW200 24/09 A3027 RMK AO2 SLP247
T02390089 10239 20100 58006


USA.gov is the U.S. government's official web portal to all federal, state and local government web resources and services.